Barra do Mendes, Brazil
Current Conditions -  °F | °C
As of 11:00 PM on Thursday 18 Dec 2014 (Local Time) from SBPL Reporting Station
Broken Clouds Broken Clouds  
Wind Chill: 81°   Ceiling: 8000
Heat Index: 87°   Visibility: 6mi
Dew Point: 77°   Wind: 5mph
Humidity: 89%   Direction: 90°E
Pressure: 29.91"   Gusts: NA
Location:  11.81°S, 42.06°W
Report Text: SBPL 190200Z 09004KT 9999 FEW030 BKN080 27/25 Q1013
Loading
Personal Weather Stations






























Interactive Weather Map New forecast layout! Learn more

10-Day Weather Forecast

Advertisements
Track Severe Weather on mobile